sensor_id;sensor_type;location;lat;lon;timestamp;P1;durP1;ratioP1;P2;durP2;ratioP2
20236;SDS011;10277;54.386;18.596;2023-04-06T00:02:53;26.13;;;12.17;;
20236;SDS011;10277;54.386;18.596;2023-04-06T00:07:57;30.33;;;12.20;;
20236;SDS011;10277;54.386;18.596;2023-04-06T00:13:00;24.80;;;11.87;;
20236;SDS011;10277;54.386;18.596;2023-04-06T00:18:03;30.70;;;11.50;;
20236;SDS011;10277;54.386;18.596;2023-04-06T00:23:07;28.63;;;12.60;;
20236;SDS011;10277;54.386;18.596;2023-04-06T00:28:10;29.50;;;13.33;;
20236;SDS011;10277;54.386;18.596;2023-04-06T00:33:13;26.73;;;12.30;;
20236;SDS011;10277;54.386;18.596;2023-04-06T00:38:16;24.73;;;12.47;;
20236;SDS011;10277;54.386;18.596;2023-04-06T00:43:20;41.27;;;22.07;;
20236;SDS011;10277;54.386;18.596;2023-04-06T00:48:23;202.27;;;79.83;;
20236;SDS011;10277;54.386;18.596;2023-04-06T00:53:26;88.40;;;47.73;;
20236;SDS011;10277;54.386;18.596;2023-04-06T00:58:29;27.27;;;15.67;;
20236;SDS011;10277;54.386;18.596;2023-04-06T01:03:39;38.33;;;16.90;;
20236;SDS011;10277;54.386;18.596;2023-04-06T01:08:50;24.97;;;11.10;;
20236;SDS011;10277;54.386;18.596;2023-04-06T01:13:56;27.77;;;10.27;;
20236;SDS011;10277;54.386;18.596;2023-04-06T01:19:09;27.10;;;11.03;;
20236;SDS011;10277;54.386;18.596;2023-04-06T01:24:16;22.67;;;11.63;;
20236;SDS011;10277;54.386;18.596;2023-04-06T01:29:42;31.70;;;12.67;;
20236;SDS011;10277;54.386;18.596;2023-04-06T01:35:03;27.30;;;11.27;;
20236;SDS011;10277;54.386;18.596;2023-04-06T01:40:10;26.63;;;11.90;;
20236;SDS011;10277;54.386;18.596;2023-04-06T01:45:22;24.77;;;10.53;;
20236;SDS011;10277;54.386;18.596;2023-04-06T01:50:27;22.50;;;9.90;;
20236;SDS011;10277;54.386;18.596;2023-04-06T01:55:30;21.67;;;9.43;;
20236;SDS011;10277;54.386;18.596;2023-04-06T02:00:54;22.83;;;10.50;;
20236;SDS011;10277;54.386;18.596;2023-04-06T02:05:59;22.73;;;10.87;;
20236;SDS011;10277;54.386;18.596;2023-04-06T02:11:08;24.13;;;11.07;;
20236;SDS011;10277;54.386;18.596;2023-04-06T02:16:26;23.97;;;10.30;;
20236;SDS011;10277;54.386;18.596;2023-04-06T02:21:29;20.67;;;9.23;;
20236;SDS011;10277;54.386;18.596;2023-04-06T02:26:33;20.60;;;9.70;;
20236;SDS011;10277;54.386;18.596;2023-04-06T02:31:37;16.80;;;8.10;;
20236;SDS011;10277;54.386;18.596;2023-04-06T02:36:41;17.33;;;7.83;;
20236;SDS011;10277;54.386;18.596;2023-04-06T02:41:44;21.37;;;8.67;;
20236;SDS011;10277;54.386;18.596;2023-04-06T02:46:54;18.83;;;8.57;;
20236;SDS011;10277;54.386;18.596;2023-04-06T02:52:02;16.70;;;8.33;;
20236;SDS011;10277;54.386;18.596;2023-04-06T02:57:09;17.23;;;7.67;;
20236;SDS011;10277;54.386;18.596;2023-04-06T03:02:17;15.93;;;6.87;;
20236;SDS011;10277;54.386;18.596;2023-04-06T03:07:20;14.70;;;6.83;;
20236;SDS011;10277;54.386;18.596;2023-04-06T03:12:24;18.07;;;7.67;;
20236;SDS011;10277;54.386;18.596;2023-04-06T03:17:45;14.03;;;7.23;;
20236;SDS011;10277;54.386;18.596;2023-04-06T03:23:09;12.73;;;6.67;;
20236;SDS011;10277;54.386;18.596;2023-04-06T03:28:15;17.67;;;8.07;;
20236;SDS011;10277;54.386;18.596;2023-04-06T03:33:26;14.53;;;8.47;;
20236;SDS011;10277;54.386;18.596;2023-04-06T03:38:31;19.60;;;9.57;;
20236;SDS011;10277;54.386;18.596;2023-04-06T03:43:36;17.67;;;7.97;;
20236;SDS011;10277;54.386;18.596;2023-04-06T03:48:39;18.93;;;7.73;;
20236;SDS011;10277;54.386;18.596;2023-04-06T03:53:43;17.10;;;7.47;;
20236;SDS011;10277;54.386;18.596;2023-04-06T03:58:46;18.10;;;9.80;;
20236;SDS011;10277;54.386;18.596;2023-04-06T04:03:55;18.83;;;9.03;;
20236;SDS011;10277;54.386;18.596;2023-04-06T04:08:58;20.40;;;10.50;;
20236;SDS011;10277;54.386;18.596;2023-04-06T04:14:01;31.87;;;17.80;;
20236;SDS011;10277;54.386;18.596;2023-04-06T04:19:05;48.90;;;29.17;;
20236;SDS011;10277;54.386;18.596;2023-04-06T04:24:08;49.23;;;24.73;;
20236;SDS011;10277;54.386;18.596;2023-04-06T04:29:12;33.47;;;17.03;;
20236;SDS011;10277;54.386;18.596;2023-04-06T04:34:15;28.63;;;14.57;;
20236;SDS011;10277;54.386;18.596;2023-04-06T04:39:18;29.67;;;15.10;;
20236;SDS011;10277;54.386;18.596;2023-04-06T04:44:30;32.10;;;15.43;;
20236;SDS011;10277;54.386;18.596;2023-04-06T04:49:33;23.63;;;12.00;;
20236;SDS011;10277;54.386;18.596;2023-04-06T04:54:37;16.97;;;9.53;;
20236;SDS011;10277;54.386;18.596;2023-04-06T04:59:40;19.53;;;9.93;;
20236;SDS011;10277;54.386;18.596;2023-04-06T05:04:51;15.83;;;8.73;;
20236;SDS011;10277;54.386;18.596;2023-04-06T05:09:59;16.83;;;9.67;;
20236;SDS011;10277;54.386;18.596;2023-04-06T05:15:06;20.33;;;8.27;;
20236;SDS011;10277;54.386;18.596;2023-04-06T05:20:10;14.30;;;7.83;;
20236;SDS011;10277;54.386;18.596;2023-04-06T05:25:20;14.03;;;7.20;;
20236;SDS011;10277;54.386;18.596;2023-04-06T05:30:27;13.23;;;7.27;;
20236;SDS011;10277;54.386;18.596;2023-04-06T05:35:30;14.13;;;8.00;;
20236;SDS011;10277;54.386;18.596;2023-04-06T05:40:40;19.70;;;8.67;;
20236;SDS011;10277;54.386;18.596;2023-04-06T05:45:49;20.63;;;8.27;;
20236;SDS011;10277;54.386;18.596;2023-04-06T05:50:52;20.50;;;10.60;;
20236;SDS011;10277;54.386;18.596;2023-04-06T05:56:05;22.93;;;10.53;;
20236;SDS011;10277;54.386;18.596;2023-04-06T06:01:10;17.80;;;9.67;;
20236;SDS011;10277;54.386;18.596;2023-04-06T06:06:17;19.67;;;9.77;;
20236;SDS011;10277;54.386;18.596;2023-04-06T06:11:40;21.87;;;9.20;;
20236;SDS011;10277;54.386;18.596;2023-04-06T06:16:47;29.33;;;12.33;;
20236;SDS011;10277;54.386;18.596;2023-04-06T06:21:51;29.87;;;13.13;;
20236;SDS011;10277;54.386;18.596;2023-04-06T06:26:55;27.90;;;14.77;;
20236;SDS011;10277;54.386;18.596;2023-04-06T06:32:02;13.67;;;6.60;;
20236;SDS011;10277;54.386;18.596;2023-04-06T06:37:05;10.03;;;4.97;;
20236;SDS011;10277;54.386;18.596;2023-04-06T06:42:11;58.50;;;16.97;;
20236;SDS011;10277;54.386;18.596;2023-04-06T06:47:33;17.20;;;7.23;;
20236;SDS011;10277;54.386;18.596;2023-04-06T06:52:36;9.57;;;4.97;;
20236;SDS011;10277;54.386;18.596;2023-04-06T06:57:39;14.93;;;5.20;;
20236;SDS011;10277;54.386;18.596;2023-04-06T07:02:46;9.37;;;5.37;;
20236;SDS011;10277;54.386;18.596;2023-04-06T07:07:49;12.53;;;4.87;;
20236;SDS011;10277;54.386;18.596;2023-04-06T07:12:54;9.83;;;5.23;;
20236;SDS011;10277;54.386;18.596;2023-04-06T07:17:57;12.23;;;5.00;;
20236;SDS011;10277;54.386;18.596;2023-04-06T07:23:02;14.40;;;6.27;;
20236;SDS011;10277;54.386;18.596;2023-04-06T07:28:05;11.83;;;6.33;;
20236;SDS011;10277;54.386;18.596;2023-04-06T07:33:09;13.40;;;5.60;;
20236;SDS011;10277;54.386;18.596;2023-04-06T07:38:13;15.53;;;6.80;;
20236;SDS011;10277;54.386;18.596;2023-04-06T07:43:16;11.63;;;6.13;;
20236;SDS011;10277;54.386;18.596;2023-04-06T07:48:20;13.20;;;5.90;;
20236;SDS011;10277;54.386;18.596;2023-04-06T07:53:23;20.33;;;7.00;;
20236;SDS011;10277;54.386;18.596;2023-04-06T07:58:26;19.50;;;7.13;;
20236;SDS011;10277;54.386;18.596;2023-04-06T08:03:30;11.40;;;5.97;;
20236;SDS011;10277;54.386;18.596;2023-04-06T08:08:33;9.20;;;4.53;;
20236;SDS011;10277;54.386;18.596;2023-04-06T08:13:37;9.63;;;4.67;;
20236;SDS011;10277;54.386;18.596;2023-04-06T08:18:40;11.90;;;4.10;;
20236;SDS011;10277;54.386;18.596;2023-04-06T08:23:44;13.70;;;9.77;;
20236;SDS011;10277;54.386;18.596;2023-04-06T08:28:48;7.53;;;3.73;;
20236;SDS011;10277;54.386;18.596;2023-04-06T08:33:52;5.60;;;3.00;;
20236;SDS011;10277;54.386;18.596;2023-04-06T08:38:55;6.50;;;3.47;;
20236;SDS011;10277;54.386;18.596;2023-04-06T08:43:59;11.77;;;3.97;;
20236;SDS011;10277;54.386;18.596;2023-04-06T08:49:03;5.20;;;2.90;;
20236;SDS011;10277;54.386;18.596;2023-04-06T08:54:09;7.57;;;3.53;;
20236;SDS011;10277;54.386;18.596;2023-04-06T08:59:12;4.97;;;3.10;;
20236;SDS011;10277;54.386;18.596;2023-04-06T09:04:15;4.80;;;2.77;;
20236;SDS011;10277;54.386;18.596;2023-04-06T09:09:20;5.50;;;3.10;;
20236;SDS011;10277;54.386;18.596;2023-04-06T09:14:38;8.97;;;3.13;;
20236;SDS011;10277;54.386;18.596;2023-04-06T09:19:46;6.23;;;3.17;;
20236;SDS011;10277;54.386;18.596;2023-04-06T09:24:50;5.77;;;2.47;;
20236;SDS011;10277;54.386;18.596;2023-04-06T09:30:03;4.83;;;2.10;;
20236;SDS011;10277;54.386;18.596;2023-04-06T09:35:10;5.63;;;2.60;;
20236;SDS011;10277;54.386;18.596;2023-04-06T09:40:16;4.53;;;1.90;;
20236;SDS011;10277;54.386;18.596;2023-04-06T09:45:22;6.07;;;2.33;;
20236;SDS011;10277;54.386;18.596;2023-04-06T09:50:29;2.47;;;2.00;;
20236;SDS011;10277;54.386;18.596;2023-04-06T10:00:47;3.20;;;1.60;;
20236;SDS011;10277;54.386;18.596;2023-04-06T10:05:59;2.50;;;1.50;;
20236;SDS011;10277;54.386;18.596;2023-04-06T10:11:04;4.30;;;1.60;;
20236;SDS011;10277;54.386;18.596;2023-04-06T10:16:09;5.40;;;1.40;;
20236;SDS011;10277;54.386;18.596;2023-04-06T10:21:14;4.00;;;1.60;;
20236;SDS011;10277;54.386;18.596;2023-04-06T10:26:23;4.53;;;1.43;;
20236;SDS011;10277;54.386;18.596;2023-04-06T10:31:27;5.63;;;2.20;;
20236;SDS011;10277;54.386;18.596;2023-04-06T10:36:33;2.13;;;0.90;;
20236;SDS011;10277;54.386;18.596;2023-04-06T10:41:44;5.70;;;2.23;;
20236;SDS011;10277;54.386;18.596;2023-04-06T10:46:58;68.43;;;33.47;;
20236;SDS011;10277;54.386;18.596;2023-04-06T10:52:05;4.03;;;2.00;;
20236;SDS011;10277;54.386;18.596;2023-04-06T10:57:09;3.53;;;1.70;;
20236;SDS011;10277;54.386;18.596;2023-04-06T11:02:19;3.50;;;1.17;;
20236;SDS011;10277;54.386;18.596;2023-04-06T11:07:25;2.03;;;1.43;;
20236;SDS011;10277;54.386;18.596;2023-04-06T11:12:29;4.07;;;1.70;;
20236;SDS011;10277;54.386;18.596;2023-04-06T11:17:35;2.63;;;1.70;;
20236;SDS011;10277;54.386;18.596;2023-04-06T11:22:49;11.20;;;5.30;;
20236;SDS011;10277;54.386;18.596;2023-04-06T11:27:55;3.13;;;1.30;;
20236;SDS011;10277;54.386;18.596;2023-04-06T11:33:00;4.87;;;2.10;;
20236;SDS011;10277;54.386;18.596;2023-04-06T11:38:04;2.70;;;1.40;;
20236;SDS011;10277;54.386;18.596;2023-04-06T11:43:10;2.77;;;1.53;;
20236;SDS011;10277;54.386;18.596;2023-04-06T11:48:17;3.73;;;2.27;;
20236;SDS011;10277;54.386;18.596;2023-04-06T11:53:22;2.97;;;1.60;;
20236;SDS011;10277;54.386;18.596;2023-04-06T11:58:25;6.17;;;3.00;;
20236;SDS011;10277;54.386;18.596;2023-04-06T12:03:29;3.80;;;1.83;;
20236;SDS011;10277;54.386;18.596;2023-04-06T12:08:33;3.43;;;1.60;;
20236;SDS011;10277;54.386;18.596;2023-04-06T12:13:37;2.57;;;1.60;;
20236;SDS011;10277;54.386;18.596;2023-04-06T12:18:40;2.00;;;1.57;;
20236;SDS011;10277;54.386;18.596;2023-04-06T12:23:43;2.93;;;1.77;;
20236;SDS011;10277;54.386;18.596;2023-04-06T12:28:46;4.90;;;1.37;;
20236;SDS011;10277;54.386;18.596;2023-04-06T12:33:50;1.80;;;1.23;;
20236;SDS011;10277;54.386;18.596;2023-04-06T12:38:53;4.13;;;1.40;;
20236;SDS011;10277;54.386;18.596;2023-04-06T12:43:57;1.63;;;1.10;;
20236;SDS011;10277;54.386;18.596;2023-04-06T12:49:02;1.37;;;0.93;;
20236;SDS011;10277;54.386;18.596;2023-04-06T12:54:06;3.07;;;1.47;;
20236;SDS011;10277;54.386;18.596;2023-04-06T12:59:09;2.10;;;0.97;;
20236;SDS011;10277;54.386;18.596;2023-04-06T13:04:12;2.33;;;1.30;;
20236;SDS011;10277;54.386;18.596;2023-04-06T13:09:16;3.07;;;1.20;;
20236;SDS011;10277;54.386;18.596;2023-04-06T13:14:19;3.13;;;1.20;;
20236;SDS011;10277;54.386;18.596;2023-04-06T13:19:22;4.90;;;1.30;;
20236;SDS011;10277;54.386;18.596;2023-04-06T13:24:25;11.33;;;4.87;;
20236;SDS011;10277;54.386;18.596;2023-04-06T13:29:28;2.30;;;1.43;;
20236;SDS011;10277;54.386;18.596;2023-04-06T13:34:32;3.00;;;1.30;;
20236;SDS011;10277;54.386;18.596;2023-04-06T13:39:35;2.20;;;1.20;;
20236;SDS011;10277;54.386;18.596;2023-04-06T13:44:38;2.33;;;1.10;;
20236;SDS011;10277;54.386;18.596;2023-04-06T13:49:42;3.20;;;2.30;;
20236;SDS011;10277;54.386;18.596;2023-04-06T13:54:46;1.93;;;1.30;;
20236;SDS011;10277;54.386;18.596;2023-04-06T13:59:49;5.87;;;1.20;;
20236;SDS011;10277;54.386;18.596;2023-04-06T14:04:55;2.27;;;1.20;;
20236;SDS011;10277;54.386;18.596;2023-04-06T14:09:58;1.90;;;1.10;;
20236;SDS011;10277;54.386;18.596;2023-04-06T14:15:03;1.10;;;1.00;;
20236;SDS011;10277;54.386;18.596;2023-04-06T14:20:06;1.20;;;1.10;;
20236;SDS011;10277;54.386;18.596;2023-04-06T14:25:10;2.13;;;1.20;;
20236;SDS011;10277;54.386;18.596;2023-04-06T14:30:16;1.77;;;1.10;;
20236;SDS011;10277;54.386;18.596;2023-04-06T14:35:19;2.23;;;1.20;;
20236;SDS011;10277;54.386;18.596;2023-04-06T14:40:23;2.70;;;1.17;;
20236;SDS011;10277;54.386;18.596;2023-04-06T14:45:27;3.37;;;1.40;;
20236;SDS011;10277;54.386;18.596;2023-04-06T14:50:30;1.47;;;1.00;;
20236;SDS011;10277;54.386;18.596;2023-04-06T14:55:38;1.80;;;1.10;;
20236;SDS011;10277;54.386;18.596;2023-04-06T15:00:43;2.63;;;1.00;;
20236;SDS011;10277;54.386;18.596;2023-04-06T15:05:47;3.83;;;1.13;;
20236;SDS011;10277;54.386;18.596;2023-04-06T15:10:50;2.87;;;1.20;;
20236;SDS011;10277;54.386;18.596;2023-04-06T15:15:54;2.13;;;1.10;;
20236;SDS011;10277;54.386;18.596;2023-04-06T15:20:57;5.90;;;1.50;;
20236;SDS011;10277;54.386;18.596;2023-04-06T15:26:01;2.23;;;1.60;;
20236;SDS011;10277;54.386;18.596;2023-04-06T15:31:12;1.90;;;1.30;;
20236;SDS011;10277;54.386;18.596;2023-04-06T15:36:38;5.00;;;1.37;;
20236;SDS011;10277;54.386;18.596;2023-04-06T15:41:42;4.60;;;1.30;;
20236;SDS011;10277;54.386;18.596;2023-04-06T15:46:45;4.93;;;1.40;;
20236;SDS011;10277;54.386;18.596;2023-04-06T15:51:51;2.67;;;1.20;;
20236;SDS011;10277;54.386;18.596;2023-04-06T15:56:55;6.47;;;1.57;;
20236;SDS011;10277;54.386;18.596;2023-04-06T16:01:58;2.27;;;1.50;;
20236;SDS011;10277;54.386;18.596;2023-04-06T16:07:03;2.10;;;1.37;;
20236;SDS011;10277;54.386;18.596;2023-04-06T16:12:06;5.10;;;1.77;;
20236;SDS011;10277;54.386;18.596;2023-04-06T16:17:11;3.47;;;1.90;;
20236;SDS011;10277;54.386;18.596;2023-04-06T16:22:18;4.07;;;1.73;;
20236;SDS011;10277;54.386;18.596;2023-04-06T16:27:22;2.27;;;1.67;;
20236;SDS011;10277;54.386;18.596;2023-04-06T16:32:25;4.90;;;2.13;;
20236;SDS011;10277;54.386;18.596;2023-04-06T16:37:29;2.67;;;2.20;;
20236;SDS011;10277;54.386;18.596;2023-04-06T16:42:32;3.50;;;2.20;;
20236;SDS011;10277;54.386;18.596;2023-04-06T16:47:35;2.90;;;2.20;;
20236;SDS011;10277;54.386;18.596;2023-04-06T16:52:39;3.73;;;2.33;;
20236;SDS011;10277;54.386;18.596;2023-04-06T16:57:43;4.93;;;2.53;;
20236;SDS011;10277;54.386;18.596;2023-04-06T17:02:47;4.23;;;2.80;;
20236;SDS011;10277;54.386;18.596;2023-04-06T17:07:51;3.80;;;2.50;;
20236;SDS011;10277;54.386;18.596;2023-04-06T17:12:54;3.77;;;2.83;;
20236;SDS011;10277;54.386;18.596;2023-04-06T17:17:58;6.37;;;3.03;;
20236;SDS011;10277;54.386;18.596;2023-04-06T17:23:02;4.47;;;3.00;;
20236;SDS011;10277;54.386;18.596;2023-04-06T17:28:05;5.70;;;3.20;;
20236;SDS011;10277;54.386;18.596;2023-04-06T17:33:08;7.20;;;3.30;;
20236;SDS011;10277;54.386;18.596;2023-04-06T17:38:11;7.00;;;3.23;;
20236;SDS011;10277;54.386;18.596;2023-04-06T17:43:14;6.27;;;3.27;;
20236;SDS011;10277;54.386;18.596;2023-04-06T17:48:18;5.67;;;2.97;;
20236;SDS011;10277;54.386;18.596;2023-04-06T17:53:24;7.40;;;3.27;;
20236;SDS011;10277;54.386;18.596;2023-04-06T17:58:28;6.23;;;3.10;;
20236;SDS011;10277;54.386;18.596;2023-04-06T18:03:32;4.90;;;2.90;;
20236;SDS011;10277;54.386;18.596;2023-04-06T18:08:36;6.80;;;3.37;;
20236;SDS011;10277;54.386;18.596;2023-04-06T18:13:39;8.57;;;2.90;;
20236;SDS011;10277;54.386;18.596;2023-04-06T18:18:43;6.37;;;2.80;;
20236;SDS011;10277;54.386;18.596;2023-04-06T18:23:46;7.13;;;2.70;;
20236;SDS011;10277;54.386;18.596;2023-04-06T18:28:49;5.00;;;3.30;;
20236;SDS011;10277;54.386;18.596;2023-04-06T18:33:52;4.63;;;2.73;;
20236;SDS011;10277;54.386;18.596;2023-04-06T18:38:57;4.50;;;2.60;;
20236;SDS011;10277;54.386;18.596;2023-04-06T18:44:00;7.20;;;2.80;;
20236;SDS011;10277;54.386;18.596;2023-04-06T18:49:04;4.30;;;2.63;;
20236;SDS011;10277;54.386;18.596;2023-04-06T18:54:07;4.53;;;2.70;;
20236;SDS011;10277;54.386;18.596;2023-04-06T18:59:11;5.27;;;2.67;;
20236;SDS011;10277;54.386;18.596;2023-04-06T19:04:15;4.40;;;2.60;;
20236;SDS011;10277;54.386;18.596;2023-04-06T19:09:19;4.83;;;3.07;;
20236;SDS011;10277;54.386;18.596;2023-04-06T19:14:22;6.07;;;3.00;;
20236;SDS011;10277;54.386;18.596;2023-04-06T19:19:25;2.97;;;1.97;;
20236;SDS011;10277;54.386;18.596;2023-04-06T19:24:29;3.40;;;2.20;;
20236;SDS011;10277;54.386;18.596;2023-04-06T19:29:33;2.93;;;2.03;;
20236;SDS011;10277;54.386;18.596;2023-04-06T19:34:37;6.23;;;2.43;;
20236;SDS011;10277;54.386;18.596;2023-04-06T19:39:41;4.20;;;2.60;;
20236;SDS011;10277;54.386;18.596;2023-04-06T19:44:47;3.40;;;2.10;;
20236;SDS011;10277;54.386;18.596;2023-04-06T19:49:50;5.60;;;2.33;;
20236;SDS011;10277;54.386;18.596;2023-04-06T19:54:53;8.00;;;2.87;;
20236;SDS011;10277;54.386;18.596;2023-04-06T19:59:57;5.47;;;2.87;;
20236;SDS011;10277;54.386;18.596;2023-04-06T20:05:00;3.67;;;2.70;;
20236;SDS011;10277;54.386;18.596;2023-04-06T20:10:04;4.17;;;2.60;;
20236;SDS011;10277;54.386;18.596;2023-04-06T20:15:07;5.67;;;2.73;;
20236;SDS011;10277;54.386;18.596;2023-04-06T20:20:11;4.23;;;2.70;;
20236;SDS011;10277;54.386;18.596;2023-04-06T20:25:15;5.53;;;2.90;;
20236;SDS011;10277;54.386;18.596;2023-04-06T20:30:18;4.70;;;2.80;;
20236;SDS011;10277;54.386;18.596;2023-04-06T20:35:21;4.43;;;2.70;;
20236;SDS011;10277;54.386;18.596;2023-04-06T20:40:25;4.63;;;2.73;;
20236;SDS011;10277;54.386;18.596;2023-04-06T20:45:29;7.27;;;3.40;;
20236;SDS011;10277;54.386;18.596;2023-04-06T20:50:32;4.43;;;3.00;;
20236;SDS011;10277;54.386;18.596;2023-04-06T20:55:39;6.33;;;4.27;;
20236;SDS011;10277;54.386;18.596;2023-04-06T21:00:43;8.37;;;5.10;;
20236;SDS011;10277;54.386;18.596;2023-04-06T21:05:54;8.90;;;3.73;;
20236;SDS011;10277;54.386;18.596;2023-04-06T21:10:59;6.40;;;3.53;;
20236;SDS011;10277;54.386;18.596;2023-04-06T21:16:02;6.50;;;3.20;;
20236;SDS011;10277;54.386;18.596;2023-04-06T21:21:06;6.33;;;3.40;;
20236;SDS011;10277;54.386;18.596;2023-04-06T21:26:12;4.63;;;2.73;;
20236;SDS011;10277;54.386;18.596;2023-04-06T21:31:15;4.97;;;2.90;;
20236;SDS011;10277;54.386;18.596;2023-04-06T21:36:21;5.03;;;3.13;;
20236;SDS011;10277;54.386;18.596;2023-04-06T21:41:27;6.13;;;3.20;;
20236;SDS011;10277;54.386;18.596;2023-04-06T21:46:31;5.37;;;3.53;;
20236;SDS011;10277;54.386;18.596;2023-04-06T21:51:34;6.03;;;3.30;;
20236;SDS011;10277;54.386;18.596;2023-04-06T21:56:37;5.73;;;3.13;;
20236;SDS011;10277;54.386;18.596;2023-04-06T22:01:41;5.90;;;3.60;;
20236;SDS011;10277;54.386;18.596;2023-04-06T22:06:44;8.20;;;3.67;;
20236;SDS011;10277;54.386;18.596;2023-04-06T22:11:47;9.90;;;3.43;;
20236;SDS011;10277;54.386;18.596;2023-04-06T22:16:50;8.80;;;4.53;;
20236;SDS011;10277;54.386;18.596;2023-04-06T22:21:56;7.03;;;4.30;;
20236;SDS011;10277;54.386;18.596;2023-04-06T22:27:00;8.30;;;5.23;;
20236;SDS011;10277;54.386;18.596;2023-04-06T22:32:03;12.80;;;7.93;;
20236;SDS011;10277;54.386;18.596;2023-04-06T22:37:07;10.13;;;4.87;;
20236;SDS011;10277;54.386;18.596;2023-04-06T22:42:10;9.07;;;4.80;;
20236;SDS011;10277;54.386;18.596;2023-04-06T22:47:13;10.27;;;5.80;;
20236;SDS011;10277;54.386;18.596;2023-04-06T22:52:16;11.37;;;6.90;;
20236;SDS011;10277;54.386;18.596;2023-04-06T22:57:19;12.50;;;7.30;;
20236;SDS011;10277;54.386;18.596;2023-04-06T23:02:24;14.03;;;7.27;;
20236;SDS011;10277;54.386;18.596;2023-04-06T23:07:27;12.00;;;7.20;;
20236;SDS011;10277;54.386;18.596;2023-04-06T23:12:30;14.23;;;8.23;;
20236;SDS011;10277;54.386;18.596;2023-04-06T23:17:34;16.57;;;8.57;;
20236;SDS011;10277;54.386;18.596;2023-04-06T23:22:37;13.73;;;7.77;;
20236;SDS011;10277;54.386;18.596;2023-04-06T23:27:40;18.03;;;9.30;;
20236;SDS011;10277;54.386;18.596;2023-04-06T23:32:43;19.20;;;9.93;;
20236;SDS011;10277;54.386;18.596;2023-04-06T23:37:47;21.87;;;10.90;;
20236;SDS011;10277;54.386;18.596;2023-04-06T23:42:50;20.53;;;12.40;;
20236;SDS011;10277;54.386;18.596;2023-04-06T23:47:53;22.10;;;12.37;;
20236;SDS011;10277;54.386;18.596;2023-04-06T23:52:57;21.57;;;11.33;;
20236;SDS011;10277;54.386;18.596;2023-04-06T23:58:00;23.43;;;11.60;;
